sensor_id;sensor_type;location;lat;lon;timestamp;P1;durP1;ratioP1;P2;durP2;ratioP2
49962;SDS011;36180;57.678;11.910;2022-07-25T00:01:11;19.38;;;7.68;;
49962;SDS011;36180;57.678;11.910;2022-07-25T00:03:39;12.18;;;7.68;;
49962;SDS011;36180;57.678;11.910;2022-07-25T00:06:06;18.02;;;8.23;;
49962;SDS011;36180;57.678;11.910;2022-07-25T00:08:34;15.93;;;8.00;;
49962;SDS011;36180;57.678;11.910;2022-07-25T00:11:01;13.45;;;8.20;;
49962;SDS011;36180;57.678;11.910;2022-07-25T00:13:28;17.55;;;7.55;;
49962;SDS011;36180;57.678;11.910;2022-07-25T00:15:55;13.35;;;7.78;;
49962;SDS011;36180;57.678;11.910;2022-07-25T00:18:22;14.20;;;8.38;;
49962;SDS011;36180;57.678;11.910;2022-07-25T00:20:50;15.90;;;7.65;;
49962;SDS011;36180;57.678;11.910;2022-07-25T00:23:17;13.98;;;8.02;;
49962;SDS011;36180;57.678;11.910;2022-07-25T00:25:44;13.82;;;7.30;;
49962;SDS011;36180;57.678;11.910;2022-07-25T00:28:11;13.00;;;6.97;;
49962;SDS011;36180;57.678;11.910;2022-07-25T00:30:38;11.40;;;6.43;;
49962;SDS011;36180;57.678;11.910;2022-07-25T00:33:05;16.13;;;7.00;;
49962;SDS011;36180;57.678;11.910;2022-07-25T00:35:32;13.18;;;6.65;;
49962;SDS011;36180;57.678;11.910;2022-07-25T00:38:01;16.65;;;6.68;;
49962;SDS011;36180;57.678;11.910;2022-07-25T00:40:28;15.30;;;6.75;;
49962;SDS011;36180;57.678;11.910;2022-07-25T00:42:55;13.27;;;6.47;;
49962;SDS011;36180;57.678;11.910;2022-07-25T00:45:22;12.77;;;6.80;;
49962;SDS011;36180;57.678;11.910;2022-07-25T00:47:49;14.50;;;7.30;;
49962;SDS011;36180;57.678;11.910;2022-07-25T00:50:16;13.50;;;7.00;;
49962;SDS011;36180;57.678;11.910;2022-07-25T00:52:43;17.15;;;7.40;;
49962;SDS011;36180;57.678;11.910;2022-07-25T00:55:11;17.77;;;7.82;;
49962;SDS011;36180;57.678;11.910;2022-07-25T00:57:39;12.93;;;7.15;;
49962;SDS011;36180;57.678;11.910;2022-07-25T01:00:07;13.90;;;7.38;;
49962;SDS011;36180;57.678;11.910;2022-07-25T01:02:36;14.18;;;7.38;;
49962;SDS011;36180;57.678;11.910;2022-07-25T01:05:04;16.58;;;7.55;;
49962;SDS011;36180;57.678;11.910;2022-07-25T01:07:32;13.27;;;6.63;;
49962;SDS011;36180;57.678;11.910;2022-07-25T01:09:59;15.68;;;7.40;;
49962;SDS011;36180;57.678;11.910;2022-07-25T01:12:28;12.45;;;6.97;;
49962;SDS011;36180;57.678;11.910;2022-07-25T01:14:55;13.38;;;6.75;;
49962;SDS011;36180;57.678;11.910;2022-07-25T01:17:22;13.23;;;6.93;;
49962;SDS011;36180;57.678;11.910;2022-07-25T01:19:49;16.13;;;7.18;;
49962;SDS011;36180;57.678;11.910;2022-07-25T01:22:18;10.43;;;7.25;;
49962;SDS011;36180;57.678;11.910;2022-07-25T01:24:45;10.35;;;6.57;;
49962;SDS011;36180;57.678;11.910;2022-07-25T01:27:12;10.57;;;6.90;;
49962;SDS011;36180;57.678;11.910;2022-07-25T01:29:39;13.75;;;7.00;;
49962;SDS011;36180;57.678;11.910;2022-07-25T01:32:06;13.82;;;7.05;;
49962;SDS011;36180;57.678;11.910;2022-07-25T01:34:33;15.90;;;6.70;;
49962;SDS011;36180;57.678;11.910;2022-07-25T01:37:00;10.52;;;6.57;;
49962;SDS011;36180;57.678;11.910;2022-07-25T01:39:28;10.45;;;5.55;;
49962;SDS011;36180;57.678;11.910;2022-07-25T01:41:57;10.00;;;5.70;;
49962;SDS011;36180;57.678;11.910;2022-07-25T01:44:24;10.88;;;5.80;;
49962;SDS011;36180;57.678;11.910;2022-07-25T01:46:51;13.07;;;6.18;;
49962;SDS011;36180;57.678;11.910;2022-07-25T01:49:18;11.55;;;6.03;;
49962;SDS011;36180;57.678;11.910;2022-07-25T01:51:45;6.97;;;5.13;;
49962;SDS011;36180;57.678;11.910;2022-07-25T01:54:12;14.98;;;5.35;;
49962;SDS011;36180;57.678;11.910;2022-07-25T01:56:43;11.73;;;5.32;;
49962;SDS011;36180;57.678;11.910;2022-07-25T01:59:10;10.48;;;5.47;;
49962;SDS011;36180;57.678;11.910;2022-07-25T02:01:37;13.82;;;6.30;;
49962;SDS011;36180;57.678;11.910;2022-07-25T02:04:04;10.68;;;5.65;;
49962;SDS011;36180;57.678;11.910;2022-07-25T02:06:31;10.00;;;5.55;;
49962;SDS011;36180;57.678;11.910;2022-07-25T02:08:59;14.50;;;5.47;;
49962;SDS011;36180;57.678;11.910;2022-07-25T02:11:26;8.55;;;5.18;;
49962;SDS011;36180;57.678;11.910;2022-07-25T02:13:54;12.30;;;5.80;;
49962;SDS011;36180;57.678;11.910;2022-07-25T02:16:21;13.55;;;7.82;;
49962;SDS011;36180;57.678;11.910;2022-07-25T02:18:48;16.25;;;7.43;;
49962;SDS011;36180;57.678;11.910;2022-07-25T02:21:15;13.80;;;8.52;;
49962;SDS011;36180;57.678;11.910;2022-07-25T02:23:43;15.40;;;9.05;;
49962;SDS011;36180;57.678;11.910;2022-07-25T02:26:10;16.48;;;9.30;;
49962;SDS011;36180;57.678;11.910;2022-07-25T02:28:37;17.08;;;9.43;;
49962;SDS011;36180;57.678;11.910;2022-07-25T02:31:06;14.52;;;9.85;;
49962;SDS011;36180;57.678;11.910;2022-07-25T02:33:33;21.67;;;11.02;;
49962;SDS011;36180;57.678;11.910;2022-07-25T02:36:00;24.52;;;10.90;;
49962;SDS011;36180;57.678;11.910;2022-07-25T02:38:27;20.02;;;10.30;;
49962;SDS011;36180;57.678;11.910;2022-07-25T02:40:54;20.98;;;11.70;;
49962;SDS011;36180;57.678;11.910;2022-07-25T02:43:21;21.00;;;14.05;;
49962;SDS011;36180;57.678;11.910;2022-07-25T02:45:48;20.88;;;13.60;;
49962;SDS011;36180;57.678;11.910;2022-07-25T02:48:16;22.48;;;15.52;;
49962;SDS011;36180;57.678;11.910;2022-07-25T02:50:43;24.85;;;15.30;;
49962;SDS011;36180;57.678;11.910;2022-07-25T02:53:10;27.25;;;15.43;;
49962;SDS011;36180;57.678;11.910;2022-07-25T02:55:37;22.63;;;15.65;;
49962;SDS011;36180;57.678;11.910;2022-07-25T02:58:04;24.70;;;16.80;;
49962;SDS011;36180;57.678;11.910;2022-07-25T03:00:31;22.05;;;16.00;;
49962;SDS011;36180;57.678;11.910;2022-07-25T03:02:59;25.35;;;15.15;;
49962;SDS011;36180;57.678;11.910;2022-07-25T03:05:27;25.83;;;15.00;;
49962;SDS011;36180;57.678;11.910;2022-07-25T03:07:54;21.33;;;14.52;;
49962;SDS011;36180;57.678;11.910;2022-07-25T03:10:21;24.17;;;14.80;;
49962;SDS011;36180;57.678;11.910;2022-07-25T03:12:48;19.30;;;15.00;;
49962;SDS011;36180;57.678;11.910;2022-07-25T03:15:15;23.83;;;15.90;;
49962;SDS011;36180;57.678;11.910;2022-07-25T03:17:42;20.73;;;14.48;;
49962;SDS011;36180;57.678;11.910;2022-07-25T03:20:10;20.42;;;14.48;;
49962;SDS011;36180;57.678;11.910;2022-07-25T03:22:38;22.52;;;14.88;;
49962;SDS011;36180;57.678;11.910;2022-07-25T03:25:06;21.33;;;15.20;;
49962;SDS011;36180;57.678;11.910;2022-07-25T03:27:33;24.17;;;15.45;;
49962;SDS011;36180;57.678;11.910;2022-07-25T03:30:00;22.90;;;15.68;;
49962;SDS011;36180;57.678;11.910;2022-07-25T03:32:27;22.65;;;15.52;;
49962;SDS011;36180;57.678;11.910;2022-07-25T03:34:54;20.02;;;15.02;;
49962;SDS011;36180;57.678;11.910;2022-07-25T03:37:21;20.35;;;14.27;;
49962;SDS011;36180;57.678;11.910;2022-07-25T03:39:50;17.67;;;14.23;;
49962;SDS011;36180;57.678;11.910;2022-07-25T03:42:17;20.25;;;14.93;;
49962;SDS011;36180;57.678;11.910;2022-07-25T03:44:44;19.27;;;14.73;;
49962;SDS011;36180;57.678;11.910;2022-07-25T03:47:11;23.08;;;14.35;;
49962;SDS011;36180;57.678;11.910;2022-07-25T03:49:38;19.27;;;13.98;;
49962;SDS011;36180;57.678;11.910;2022-07-25T03:52:05;19.73;;;14.10;;
49962;SDS011;36180;57.678;11.910;2022-07-25T03:54:32;16.70;;;13.20;;
49962;SDS011;36180;57.678;11.910;2022-07-25T03:57:00;17.95;;;13.55;;
49962;SDS011;36180;57.678;11.910;2022-07-25T03:59:27;20.23;;;14.23;;
49962;SDS011;36180;57.678;11.910;2022-07-25T04:01:54;23.40;;;14.20;;
49962;SDS011;36180;57.678;11.910;2022-07-25T04:04:21;18.45;;;13.55;;
49962;SDS011;36180;57.678;11.910;2022-07-25T04:06:48;24.08;;;15.43;;
49962;SDS011;36180;57.678;11.910;2022-07-25T04:09:15;21.10;;;13.50;;
49962;SDS011;36180;57.678;11.910;2022-07-25T04:11:42;20.75;;;15.40;;
49962;SDS011;36180;57.678;11.910;2022-07-25T04:14:11;18.98;;;14.15;;
49962;SDS011;36180;57.678;11.910;2022-07-25T04:16:38;22.40;;;15.55;;
49962;SDS011;36180;57.678;11.910;2022-07-25T04:19:05;25.85;;;16.55;;
49962;SDS011;36180;57.678;11.910;2022-07-25T04:21:32;22.20;;;16.05;;
49962;SDS011;36180;57.678;11.910;2022-07-25T04:23:59;27.77;;;17.80;;
49962;SDS011;36180;57.678;11.910;2022-07-25T04:26:27;26.48;;;18.65;;
49962;SDS011;36180;57.678;11.910;2022-07-25T04:28:54;28.73;;;17.30;;
49962;SDS011;36180;57.678;11.910;2022-07-25T04:31:23;27.20;;;17.45;;
49962;SDS011;36180;57.678;11.910;2022-07-25T04:33:50;28.83;;;17.70;;
49962;SDS011;36180;57.678;11.910;2022-07-25T04:36:17;36.83;;;17.95;;
49962;SDS011;36180;57.678;11.910;2022-07-25T04:38:44;35.67;;;17.33;;
49962;SDS011;36180;57.678;11.910;2022-07-25T04:41:11;41.72;;;18.80;;
49962;SDS011;36180;57.678;11.910;2022-07-25T04:43:38;45.83;;;19.42;;
49962;SDS011;36180;57.678;11.910;2022-07-25T04:46:05;45.83;;;19.17;;
49962;SDS011;36180;57.678;11.910;2022-07-25T04:48:34;41.58;;;19.20;;
49962;SDS011;36180;57.678;11.910;2022-07-25T04:51:01;35.70;;;19.85;;
49962;SDS011;36180;57.678;11.910;2022-07-25T04:53:28;36.90;;;19.55;;
49962;SDS011;36180;57.678;11.910;2022-07-25T04:55:55;44.22;;;19.85;;
49962;SDS011;36180;57.678;11.910;2022-07-25T04:58:22;41.35;;;19.80;;
49962;SDS011;36180;57.678;11.910;2022-07-25T05:00:49;41.85;;;19.65;;
49962;SDS011;36180;57.678;11.910;2022-07-25T05:03:16;36.63;;;16.88;;
49962;SDS011;36180;57.678;11.910;2022-07-25T05:05:44;46.35;;;16.63;;
49962;SDS011;36180;57.678;11.910;2022-07-25T05:08:11;37.10;;;17.00;;
49962;SDS011;36180;57.678;11.910;2022-07-25T05:10:38;38.58;;;15.27;;
49962;SDS011;36180;57.678;11.910;2022-07-25T05:13:05;37.78;;;15.75;;
49962;SDS011;36180;57.678;11.910;2022-07-25T05:15:32;38.58;;;15.30;;
49962;SDS011;36180;57.678;11.910;2022-07-25T05:18:00;38.22;;;15.40;;
49962;SDS011;36180;57.678;11.910;2022-07-25T05:20:27;31.08;;;15.60;;
49962;SDS011;36180;57.678;11.910;2022-07-25T05:22:57;45.75;;;15.52;;
49962;SDS011;36180;57.678;11.910;2022-07-25T05:25:24;45.47;;;16.85;;
49962;SDS011;36180;57.678;11.910;2022-07-25T05:27:50;44.13;;;16.40;;
49962;SDS011;36180;57.678;11.910;2022-07-25T05:30:18;34.80;;;15.45;;
49962;SDS011;36180;57.678;11.910;2022-07-25T05:32:45;42.90;;;16.77;;
49962;SDS011;36180;57.678;11.910;2022-07-25T05:35:13;40.55;;;17.02;;
49962;SDS011;36180;57.678;11.910;2022-07-25T05:37:40;42.42;;;17.13;;
49962;SDS011;36180;57.678;11.910;2022-07-25T05:40:08;46.00;;;18.27;;
49962;SDS011;36180;57.678;11.910;2022-07-25T05:42:36;32.50;;;17.80;;
49962;SDS011;36180;57.678;11.910;2022-07-25T05:45:03;36.58;;;17.70;;
49962;SDS011;36180;57.678;11.910;2022-07-25T05:47:31;35.15;;;16.33;;
49962;SDS011;36180;57.678;11.910;2022-07-25T05:49:58;34.17;;;16.98;;
49962;SDS011;36180;57.678;11.910;2022-07-25T05:52:24;31.95;;;16.50;;
49962;SDS011;36180;57.678;11.910;2022-07-25T05:54:52;30.45;;;16.05;;
49962;SDS011;36180;57.678;11.910;2022-07-25T05:57:20;31.98;;;14.43;;
49962;SDS011;36180;57.678;11.910;2022-07-25T05:59:47;28.83;;;15.55;;
49962;SDS011;36180;57.678;11.910;2022-07-25T06:02:14;24.35;;;13.45;;
49962;SDS011;36180;57.678;11.910;2022-07-25T06:04:41;25.58;;;14.95;;
49962;SDS011;36180;57.678;11.910;2022-07-25T06:07:09;29.92;;;15.38;;
49962;SDS011;36180;57.678;11.910;2022-07-25T06:09:36;31.55;;;15.88;;
49962;SDS011;36180;57.678;11.910;2022-07-25T06:12:03;28.77;;;15.70;;
49962;SDS011;36180;57.678;11.910;2022-07-25T06:14:32;31.55;;;16.95;;
49962;SDS011;36180;57.678;11.910;2022-07-25T06:16:59;31.02;;;16.73;;
49962;SDS011;36180;57.678;11.910;2022-07-25T06:19:26;33.65;;;17.45;;
49962;SDS011;36180;57.678;11.910;2022-07-25T06:21:53;33.80;;;16.85;;
49962;SDS011;36180;57.678;11.910;2022-07-25T06:24:20;32.25;;;17.33;;
49962;SDS011;36180;57.678;11.910;2022-07-25T06:26:47;40.63;;;19.02;;
49962;SDS011;36180;57.678;11.910;2022-07-25T06:29:14;32.75;;;17.83;;
49962;SDS011;36180;57.678;11.910;2022-07-25T06:31:42;36.83;;;17.77;;
49962;SDS011;36180;57.678;11.910;2022-07-25T06:34:09;27.23;;;17.58;;
49962;SDS011;36180;57.678;11.910;2022-07-25T06:36:36;28.10;;;16.50;;
49962;SDS011;36180;57.678;11.910;2022-07-25T06:39:03;38.42;;;17.80;;
49962;SDS011;36180;57.678;11.910;2022-07-25T06:41:30;27.75;;;15.70;;
49962;SDS011;36180;57.678;11.910;2022-07-25T06:43:57;23.48;;;14.10;;
49962;SDS011;36180;57.678;11.910;2022-07-25T06:46:24;27.08;;;15.38;;
49962;SDS011;36180;57.678;11.910;2022-07-25T06:48:56;27.02;;;13.18;;
49962;SDS011;36180;57.678;11.910;2022-07-25T06:51:23;25.05;;;13.20;;
49962;SDS011;36180;57.678;11.910;2022-07-25T06:53:50;22.42;;;12.07;;
49962;SDS011;36180;57.678;11.910;2022-07-25T06:56:17;24.88;;;12.35;;
49962;SDS011;36180;57.678;11.910;2022-07-25T06:58:45;26.10;;;12.98;;
49962;SDS011;36180;57.678;11.910;2022-07-25T07:01:11;23.80;;;10.85;;
49962;SDS011;36180;57.678;11.910;2022-07-25T07:03:39;23.90;;;11.13;;
49962;SDS011;36180;57.678;11.910;2022-07-25T07:06:07;26.85;;;11.52;;
49962;SDS011;36180;57.678;11.910;2022-07-25T07:08:34;31.25;;;12.18;;
49962;SDS011;36180;57.678;11.910;2022-07-25T07:11:02;30.33;;;11.68;;
49962;SDS011;36180;57.678;11.910;2022-07-25T07:13:29;22.13;;;11.75;;
49962;SDS011;36180;57.678;11.910;2022-07-25T07:15:56;23.02;;;11.10;;
49962;SDS011;36180;57.678;11.910;2022-07-25T07:18:23;27.13;;;11.32;;
49962;SDS011;36180;57.678;11.910;2022-07-25T07:20:50;30.33;;;11.70;;
49962;SDS011;36180;57.678;11.910;2022-07-25T07:23:19;23.50;;;10.98;;
49962;SDS011;36180;57.678;11.910;2022-07-25T07:25:46;22.30;;;10.38;;
49962;SDS011;36180;57.678;11.910;2022-07-25T07:28:13;23.55;;;9.65;;
49962;SDS011;36180;57.678;11.910;2022-07-25T07:30:40;23.65;;;10.00;;
49962;SDS011;36180;57.678;11.910;2022-07-25T07:33:08;19.50;;;8.77;;
49962;SDS011;36180;57.678;11.910;2022-07-25T07:35:34;20.17;;;8.55;;
49962;SDS011;36180;57.678;11.910;2022-07-25T07:38:01;17.15;;;7.88;;
49962;SDS011;36180;57.678;11.910;2022-07-25T07:40:30;20.08;;;8.43;;
49962;SDS011;36180;57.678;11.910;2022-07-25T07:42:58;22.67;;;7.80;;
49962;SDS011;36180;57.678;11.910;2022-07-25T07:45:27;16.80;;;7.55;;
49962;SDS011;36180;57.678;11.910;2022-07-25T07:47:55;23.50;;;8.10;;
49962;SDS011;36180;57.678;11.910;2022-07-25T07:50:23;16.55;;;7.28;;
49962;SDS011;36180;57.678;11.910;2022-07-25T07:52:51;12.40;;;7.07;;
49962;SDS011;36180;57.678;11.910;2022-07-25T07:55:19;15.00;;;7.55;;
49962;SDS011;36180;57.678;11.910;2022-07-25T07:58:05;10.13;;;6.10;;
49962;SDS011;36180;57.678;11.910;2022-07-25T08:00:32;16.83;;;7.05;;
49962;SDS011;36180;57.678;11.910;2022-07-25T08:03:00;14.20;;;6.38;;
49962;SDS011;36180;57.678;11.910;2022-07-25T08:05:29;17.95;;;5.90;;
49962;SDS011;36180;57.678;11.910;2022-07-25T08:07:57;14.40;;;5.43;;
49962;SDS011;36180;57.678;11.910;2022-07-25T08:10:26;7.97;;;5.25;;
49962;SDS011;36180;57.678;11.910;2022-07-25T08:12:54;9.82;;;4.40;;
49962;SDS011;36180;57.678;11.910;2022-07-25T08:15:23;12.82;;;5.10;;
49962;SDS011;36180;57.678;11.910;2022-07-25T08:17:50;14.63;;;5.57;;
49962;SDS011;36180;57.678;11.910;2022-07-25T08:20:17;10.35;;;4.43;;
49962;SDS011;36180;57.678;11.910;2022-07-25T08:22:47;13.30;;;4.50;;
49962;SDS011;36180;57.678;11.910;2022-07-25T08:25:15;11.32;;;4.90;;
49962;SDS011;36180;57.678;11.910;2022-07-25T08:27:43;15.07;;;5.22;;
49962;SDS011;36180;57.678;11.910;2022-07-25T08:30:11;15.80;;;6.75;;
49962;SDS011;36180;57.678;11.910;2022-07-25T08:32:48;11.57;;;6.57;;
49962;SDS011;36180;57.678;11.910;2022-07-25T08:35:16;13.90;;;7.80;;
49962;SDS011;36180;57.678;11.910;2022-07-25T08:37:43;12.07;;;7.35;;
49962;SDS011;36180;57.678;11.910;2022-07-25T08:40:11;12.95;;;8.02;;
49962;SDS011;36180;57.678;11.910;2022-07-25T08:42:39;18.60;;;9.57;;
49962;SDS011;36180;57.678;11.910;2022-07-25T08:45:07;14.50;;;9.50;;
49962;SDS011;36180;57.678;11.910;2022-07-25T08:47:38;17.00;;;9.88;;
49962;SDS011;36180;57.678;11.910;2022-07-25T08:50:07;12.60;;;9.43;;
49962;SDS011;36180;57.678;11.910;2022-07-25T08:52:36;12.85;;;8.98;;
49962;SDS011;36180;57.678;11.910;2022-07-25T08:55:03;13.45;;;10.90;;
49962;SDS011;36180;57.678;11.910;2022-07-25T08:57:32;18.60;;;11.75;;
49962;SDS011;36180;57.678;11.910;2022-07-25T09:00:00;14.70;;;11.15;;
49962;SDS011;36180;57.678;11.910;2022-07-25T09:02:27;15.30;;;11.20;;
49962;SDS011;36180;57.678;11.910;2022-07-25T09:04:55;17.33;;;12.50;;
49962;SDS011;36180;57.678;11.910;2022-07-25T09:07:32;16.98;;;12.68;;
49962;SDS011;36180;57.678;11.910;2022-07-25T09:10:10;15.68;;;12.70;;
49962;SDS011;36180;57.678;11.910;2022-07-25T09:12:38;17.95;;;13.77;;
49962;SDS011;36180;57.678;11.910;2022-07-25T09:15:05;19.90;;;14.02;;
49962;SDS011;36180;57.678;11.910;2022-07-25T09:17:33;21.50;;;14.98;;
49962;SDS011;36180;57.678;11.910;2022-07-25T09:20:00;21.50;;;13.57;;
49962;SDS011;36180;57.678;11.910;2022-07-25T09:22:30;18.45;;;13.60;;
49962;SDS011;36180;57.678;11.910;2022-07-25T09:24:57;29.25;;;14.77;;
49962;SDS011;36180;57.678;11.910;2022-07-25T09:27:24;30.27;;;15.15;;
49962;SDS011;36180;57.678;11.910;2022-07-25T09:29:51;24.90;;;16.73;;
49962;SDS011;36180;57.678;11.910;2022-07-25T09:32:19;31.17;;;17.15;;
49962;SDS011;36180;57.678;11.910;2022-07-25T09:34:47;26.92;;;15.75;;
49962;SDS011;36180;57.678;11.910;2022-07-25T09:37:15;23.95;;;15.52;;
49962;SDS011;36180;57.678;11.910;2022-07-25T09:39:45;21.58;;;14.60;;
49962;SDS011;36180;57.678;11.910;2022-07-25T09:42:14;27.42;;;16.42;;
49962;SDS011;36180;57.678;11.910;2022-07-25T09:44:56;30.58;;;16.10;;
49962;SDS011;36180;57.678;11.910;2022-07-25T09:47:28;27.60;;;15.80;;
49962;SDS011;36180;57.678;11.910;2022-07-25T09:49:56;24.50;;;15.10;;
49962;SDS011;36180;57.678;11.910;2022-07-25T09:52:23;25.23;;;14.45;;
49962;SDS011;36180;57.678;11.910;2022-07-25T09:54:51;21.83;;;15.18;;
49962;SDS011;36180;57.678;11.910;2022-07-25T09:57:19;23.67;;;15.40;;
49962;SDS011;36180;57.678;11.910;2022-07-25T09:59:47;25.65;;;14.60;;
49962;SDS011;36180;57.678;11.910;2022-07-25T10:02:16;21.83;;;14.32;;
49962;SDS011;36180;57.678;11.910;2022-07-25T10:04:53;29.20;;;16.00;;
49962;SDS011;36180;57.678;11.910;2022-07-25T10:07:25;31.60;;;16.25;;
49962;SDS011;36180;57.678;11.910;2022-07-25T10:09:54;26.20;;;15.63;;
49962;SDS011;36180;57.678;11.910;2022-07-25T10:12:22;26.77;;;14.48;;
49962;SDS011;36180;57.678;11.910;2022-07-25T10:15:08;22.30;;;14.23;;
49962;SDS011;36180;57.678;11.910;2022-07-25T10:17:37;22.98;;;15.18;;
49962;SDS011;36180;57.678;11.910;2022-07-25T10:20:05;23.63;;;14.60;;
49962;SDS011;36180;57.678;11.910;2022-07-25T10:22:34;25.85;;;14.80;;
49962;SDS011;36180;57.678;11.910;2022-07-25T10:25:08;23.50;;;14.90;;
49962;SDS011;36180;57.678;11.910;2022-07-25T10:27:40;31.45;;;14.73;;
49962;SDS011;36180;57.678;11.910;2022-07-25T10:30:09;26.63;;;15.05;;
49962;SDS011;36180;57.678;11.910;2022-07-25T10:32:48;19.65;;;14.63;;
49962;SDS011;36180;57.678;11.910;2022-07-25T10:35:15;29.67;;;13.32;;
49962;SDS011;36180;57.678;11.910;2022-07-25T10:37:43;32.97;;;15.52;;
49962;SDS011;36180;57.678;11.910;2022-07-25T10:40:24;32.40;;;15.63;;
49962;SDS011;36180;57.678;11.910;2022-07-25T10:42:55;27.88;;;14.80;;
49962;SDS011;36180;57.678;11.910;2022-07-25T10:45:25;29.15;;;15.02;;
49962;SDS011;36180;57.678;11.910;2022-07-25T10:48:05;44.88;;;15.57;;
49962;SDS011;36180;57.678;11.910;2022-07-25T10:50:32;22.83;;;13.52;;
49962;SDS011;36180;57.678;11.910;2022-07-25T10:52:59;25.42;;;13.77;;
49962;SDS011;36180;57.678;11.910;2022-07-25T10:55:33;32.63;;;14.93;;
49962;SDS011;36180;57.678;11.910;2022-07-25T10:58:01;27.70;;;13.80;;
49962;SDS011;36180;57.678;11.910;2022-07-25T11:00:30;26.80;;;12.35;;
49962;SDS011;36180;57.678;11.910;2022-07-25T11:02:58;25.05;;;12.82;;
49962;SDS011;36180;57.678;11.910;2022-07-25T11:05:25;27.15;;;12.13;;
49962;SDS011;36180;57.678;11.910;2022-07-25T11:07:54;40.13;;;13.70;;
49962;SDS011;36180;57.678;11.910;2022-07-25T11:10:24;44.97;;;11.60;;
49962;SDS011;36180;57.678;11.910;2022-07-25T11:12:53;17.20;;;11.25;;
49962;SDS011;36180;57.678;11.910;2022-07-25T11:15:21;41.05;;;9.73;;
49962;SDS011;36180;57.678;11.910;2022-07-25T11:17:50;19.45;;;10.00;;
49962;SDS011;36180;57.678;11.910;2022-07-25T11:20:17;16.75;;;9.60;;
49962;SDS011;36180;57.678;11.910;2022-07-25T11:22:49;21.73;;;9.52;;
49962;SDS011;36180;57.678;11.910;2022-07-25T11:25:19;25.27;;;10.73;;
49962;SDS011;36180;57.678;11.910;2022-07-25T11:27:48;25.30;;;10.63;;
49962;SDS011;36180;57.678;11.910;2022-07-25T11:30:21;36.47;;;11.73;;
49962;SDS011;36180;57.678;11.910;2022-07-25T11:32:49;43.97;;;13.10;;
49962;SDS011;36180;57.678;11.910;2022-07-25T11:35:18;38.38;;;12.85;;
49962;SDS011;36180;57.678;11.910;2022-07-25T11:37:46;47.95;;;14.52;;
49962;SDS011;36180;57.678;11.910;2022-07-25T11:40:15;57.55;;;15.52;;
49962;SDS011;36180;57.678;11.910;2022-07-25T11:42:43;55.17;;;15.38;;
49962;SDS011;36180;57.678;11.910;2022-07-25T11:45:16;46.15;;;13.57;;
49962;SDS011;36180;57.678;11.910;2022-07-25T11:47:45;30.92;;;13.15;;
49962;SDS011;36180;57.678;11.910;2022-07-25T11:50:14;30.95;;;13.65;;
49962;SDS011;36180;57.678;11.910;2022-07-25T11:52:41;46.75;;;13.75;;
49962;SDS011;36180;57.678;11.910;2022-07-25T11:55:11;33.17;;;14.88;;
49962;SDS011;36180;57.678;11.910;2022-07-25T11:57:41;47.20;;;13.98;;
49962;SDS011;36180;57.678;11.910;2022-07-25T12:00:13;25.60;;;11.35;;
49962;SDS011;36180;57.678;11.910;2022-07-25T12:02:42;29.45;;;11.93;;
49962;SDS011;36180;57.678;11.910;2022-07-25T12:05:11;60.03;;;13.52;;
49962;SDS011;36180;57.678;11.910;2022-07-25T12:07:41;39.93;;;15.70;;
49962;SDS011;36180;57.678;11.910;2022-07-25T12:10:11;41.58;;;14.65;;
49962;SDS011;36180;57.678;11.910;2022-07-25T12:12:45;35.63;;;13.32;;
49962;SDS011;36180;57.678;11.910;2022-07-25T12:15:14;34.55;;;13.55;;
49962;SDS011;36180;57.678;11.910;2022-07-25T12:17:43;43.75;;;13.98;;
49962;SDS011;36180;57.678;11.910;2022-07-25T12:20:13;33.25;;;12.93;;
49962;SDS011;36180;57.678;11.910;2022-07-25T12:22:41;34.20;;;13.55;;
49962;SDS011;36180;57.678;11.910;2022-07-25T12:25:09;37.20;;;13.50;;
49962;SDS011;36180;57.678;11.910;2022-07-25T12:27:36;41.30;;;14.85;;
49962;SDS011;36180;57.678;11.910;2022-07-25T12:30:04;36.72;;;13.77;;
49962;SDS011;36180;57.678;11.910;2022-07-25T12:32:32;43.15;;;13.77;;
49962;SDS011;36180;57.678;11.910;2022-07-25T12:34:59;39.70;;;12.95;;
49962;SDS011;36180;57.678;11.910;2022-07-25T12:37:28;34.47;;;13.25;;
49962;SDS011;36180;57.678;11.910;2022-07-25T12:39:55;28.35;;;13.32;;
49962;SDS011;36180;57.678;11.910;2022-07-25T12:42:22;27.50;;;12.55;;
49962;SDS011;36180;57.678;11.910;2022-07-25T12:44:49;31.20;;;14.57;;
49962;SDS011;36180;57.678;11.910;2022-07-25T12:47:17;29.25;;;13.80;;
49962;SDS011;36180;57.678;11.910;2022-07-25T12:49:44;23.45;;;12.07;;
49962;SDS011;36180;57.678;11.910;2022-07-25T12:52:11;27.73;;;12.65;;
49962;SDS011;36180;57.678;11.910;2022-07-25T12:54:40;32.38;;;12.82;;
49962;SDS011;36180;57.678;11.910;2022-07-25T12:57:07;32.83;;;13.10;;
49962;SDS011;36180;57.678;11.910;2022-07-25T12:59:35;28.20;;;13.82;;
49962;SDS011;36180;57.678;11.910;2022-07-25T13:02:02;25.80;;;13.07;;
49962;SDS011;36180;57.678;11.910;2022-07-25T13:04:29;33.55;;;15.20;;
49962;SDS011;36180;57.678;11.910;2022-07-25T13:06:57;31.17;;;14.80;;
49962;SDS011;36180;57.678;11.910;2022-07-25T13:09:25;33.70;;;14.35;;
49962;SDS011;36180;57.678;11.910;2022-07-25T13:11:54;23.40;;;12.65;;
49962;SDS011;36180;57.678;11.910;2022-07-25T13:14:21;23.98;;;12.52;;
49962;SDS011;36180;57.678;11.910;2022-07-25T13:16:48;18.77;;;10.18;;
49962;SDS011;36180;57.678;11.910;2022-07-25T13:19:16;37.05;;;11.77;;
49962;SDS011;36180;57.678;11.910;2022-07-25T13:21:43;13.90;;;8.00;;
49962;SDS011;36180;57.678;11.910;2022-07-25T13:24:10;14.02;;;8.45;;
49962;SDS011;36180;57.678;11.910;2022-07-25T13:26:38;13.32;;;6.78;;
49962;SDS011;36180;57.678;11.910;2022-07-25T13:29:06;12.77;;;7.47;;
49962;SDS011;36180;57.678;11.910;2022-07-25T13:31:35;12.23;;;6.90;;
49962;SDS011;36180;57.678;11.910;2022-07-25T13:34:03;10.90;;;6.90;;
49962;SDS011;36180;57.678;11.910;2022-07-25T13:36:30;11.80;;;6.47;;
49962;SDS011;36180;57.678;11.910;2022-07-25T13:38:58;12.85;;;7.00;;
49962;SDS011;36180;57.678;11.910;2022-07-25T13:41:25;7.25;;;6.18;;
49962;SDS011;36180;57.678;11.910;2022-07-25T13:43:52;11.73;;;7.40;;
49962;SDS011;36180;57.678;11.910;2022-07-25T13:46:20;14.18;;;6.53;;
49962;SDS011;36180;57.678;11.910;2022-07-25T13:48:47;10.80;;;6.13;;
49962;SDS011;36180;57.678;11.910;2022-07-25T13:51:14;9.98;;;6.75;;
49962;SDS011;36180;57.678;11.910;2022-07-25T13:53:41;14.07;;;7.00;;
49962;SDS011;36180;57.678;11.910;2022-07-25T13:56:10;13.48;;;7.20;;
49962;SDS011;36180;57.678;11.910;2022-07-25T13:58:37;10.68;;;7.40;;
49962;SDS011;36180;57.678;11.910;2022-07-25T14:01:04;15.75;;;8.15;;
49962;SDS011;36180;57.678;11.910;2022-07-25T14:03:34;19.10;;;9.13;;
49962;SDS011;36180;57.678;11.910;2022-07-25T14:06:01;17.77;;;10.20;;
49962;SDS011;36180;57.678;11.910;2022-07-25T14:08:28;18.15;;;10.93;;
49962;SDS011;36180;57.678;11.910;2022-07-25T14:10:56;15.02;;;10.13;;
49962;SDS011;36180;57.678;11.910;2022-07-25T14:13:23;11.38;;;9.52;;
49962;SDS011;36180;57.678;11.910;2022-07-25T14:15:50;14.35;;;11.50;;
49962;SDS011;36180;57.678;11.910;2022-07-25T14:18:17;14.45;;;10.60;;